»·PEaware :: N82806 KRNO-KOTH

N82806 :: KRNO-KOTH

FLIGHT INFORMATION

Flight Status: Arrived
Operator: Privately registered:
United States
More flights under this callsign
Pilot: Gregory A. (9731)
Aircraft: PIPER PA-34 SENECA
(PA34)
More flights by this aircraft type
Origin: KRNO Reno/Tahoe Intl
United States
Destination: KOTH North Bend Mun
United States
More flights between these airports :: More routes between these airports
Route: +RENO9 FITUN V452 LMT V122 OED V287 OTH
File this flight plan on PilotEdge
Remarks:
Altitude:
(Current/Filed)
14,000ft
Speed:
(Current/Filed)
200kts
Departed: 18-Apr-18 03:54 PM
Arrived: 18-Apr-18 05:54 PM
Distance/Time
Traveled:
310nm/2:00
Distance/Time
To Go:
Arrived

Flight Plot

Page will automatically refresh every two minutes.

Flight plan parsing failed; only flown route is shown


Map Options




Map Legend


Flown Route
Filed Route
Departure Airport
Arrival Airport
Navaid (VOR, NDB)
Fix

Horizontal Profiles

Position Reports

Time Latitude Longitude Heading Altitude Ground
Speed
18-Apr-18 15:31 39.498820 -119.764089 92 4418ft 0kts
18-Apr-18 15:32 39.498829 -119.764374 92 4418ft 0kts
18-Apr-18 15:33 39.498829 -119.764374 92 4418ft 0kts
18-Apr-18 15:34 39.498829 -119.764374 92 4418ft 0kts
18-Apr-18 15:35 39.498829 -119.764374 92 4418ft 0kts
18-Apr-18 15:36 39.498829 -119.764374 92 4418ft 0kts
18-Apr-18 15:37 39.498829 -119.764374 92 4418ft 0kts
18-Apr-18 15:38 39.498829 -119.764374 92 4418ft 0kts
18-Apr-18 15:39 39.498829 -119.764374 92 4418ft 0kts
18-Apr-18 15:40 39.498829 -119.764374 92 4418ft 0kts
18-Apr-18 15:41 39.498829 -119.764374 92 4418ft 0kts
18-Apr-18 15:42 39.498829 -119.764374 92 4418ft 0kts
18-Apr-18 15:43 39.498829 -119.764374 92 4418ft 0kts
18-Apr-18 15:44 39.498829 -119.764374 92 4418ft 0kts
18-Apr-18 15:45 39.498829 -119.764374 92 4418ft 0kts
18-Apr-18 15:46 39.498829 -119.764374 92 4418ft 0kts
18-Apr-18 15:47 39.498829 -119.764374 92 4418ft 0kts
18-Apr-18 15:48 39.498829 -119.764373 92 4418ft 0kts
18-Apr-18 15:49 39.498013 -119.765206 179 4418ft 12kts
18-Apr-18 15:50 39.492981 -119.765196 180 4418ft 19kts
18-Apr-18 15:51 39.489378 -119.766010 270 4418ft 0kts
18-Apr-18 15:52 39.489380 -119.766372 270 4418ft 9kts
18-Apr-18 15:53 39.508542 -119.765958 11 4759ft 106kts
18-Apr-18 15:54 39.539952 -119.755487 14 5728ft 127kts
18-Apr-18 15:55 39.575369 -119.743378 13 6571ft 129kts
18-Apr-18 15:56 39.608516 -119.731645 13 7520ft 119kts
18-Apr-18 15:57 39.634592 -119.727574 333 8334ft 112kts
18-Apr-18 15:58 39.662109 -119.745513 329 9318ft 109kts
18-Apr-18 15:59 39.688865 -119.764022 325 10326ft 108kts
18-Apr-18 16:00 39.715990 -119.782409 325 11346ft 111kts
18-Apr-18 16:01 39.744128 -119.800559 320 12369ft 114kts
18-Apr-18 16:02 39.771079 -119.823814 316 13386ft 119kts
18-Apr-18 16:03 39.799435 -119.850932 316 14039ft 148kts
18-Apr-18 16:04 39.838425 -119.885751 320 14024ft 182kts
18-Apr-18 16:05 39.882333 -119.921918 323 14020ft 190kts
18-Apr-18 16:06 39.928048 -119.957296 324 14020ft 191kts
18-Apr-18 16:07 39.974224 -119.992698 324 14017ft 192kts
18-Apr-18 16:08 40.019568 -120.027421 323 14170ft 184kts
18-Apr-18 16:09 40.064226 -120.061769 323 14184ft 188kts
18-Apr-18 16:10 40.109582 -120.096636 324 14184ft 189kts
18-Apr-18 16:11 40.154974 -120.131577 323 14177ft 189kts
18-Apr-18 16:12 40.200112 -120.166396 323 14178ft 189kts
18-Apr-18 16:13 40.245628 -120.201557 324 14177ft 189kts
18-Apr-18 16:14 40.290976 -120.236638 324 14177ft 189kts
18-Apr-18 16:15 40.336335 -120.271797 323 14178ft 190kts
18-Apr-18 16:16 40.381796 -120.307066 323 14176ft 189kts
18-Apr-18 16:17 40.427263 -120.342415 323 14176ft 189kts
18-Apr-18 16:18 40.472364 -120.377530 323 14177ft 188kts
18-Apr-18 16:19 40.517531 -120.412757 324 14176ft 189kts
18-Apr-18 16:20 40.562779 -120.448099 323 14176ft 189kts
18-Apr-18 16:21 40.607914 -120.483406 323 14178ft 188kts
18-Apr-18 16:22 40.653126 -120.518835 324 14177ft 188kts
18-Apr-18 16:23 40.698131 -120.554153 323 14180ft 188kts
18-Apr-18 16:24 40.743241 -120.589615 323 14180ft 188kts
18-Apr-18 16:25 40.788336 -120.625114 323 14180ft 188kts
18-Apr-18 16:26 40.833231 -120.660525 324 14180ft 188kts
18-Apr-18 16:27 40.878111 -120.695971 324 14175ft 188kts
18-Apr-18 16:28 40.923228 -120.731662 324 14126ft 189kts
18-Apr-18 16:29 40.967959 -120.767095 323 14119ft 186kts
18-Apr-18 16:30 41.012323 -120.802315 324 14118ft 185kts
18-Apr-18 16:31 41.056377 -120.837333 323 14120ft 185kts
18-Apr-18 16:32 41.100631 -120.872578 323 14120ft 187kts
18-Apr-18 16:33 41.145932 -120.908702 324 14120ft 191kts
18-Apr-18 16:34 41.191478 -120.945059 324 14121ft 191kts
18-Apr-18 16:35 41.237128 -120.981581 324 14122ft 191kts
18-Apr-18 16:36 41.282523 -121.017954 324 14143ft 188kts
18-Apr-18 16:37 41.323259 -121.050585 322 15028ft 158kts
18-Apr-18 16:38 41.359346 -121.079707 322 16004ft 145kts
18-Apr-18 16:39 41.392331 -121.106324 320 16974ft 134kts
18-Apr-18 16:40 41.423669 -121.131637 320 17957ft 130kts
18-Apr-18 16:41 41.457532 -121.159078 322 18311ft 159kts
18-Apr-18 16:42 41.498834 -121.192333 323 18202ft 181kts
18-Apr-18 16:43 41.542324 -121.227388 323 18201ft 183kts
18-Apr-18 16:44 41.585796 -121.262580 323 18200ft 182kts
18-Apr-18 16:45 41.629243 -121.297839 323 18201ft 183kts
18-Apr-18 16:46 41.672929 -121.333349 323 18200ft 183kts
18-Apr-18 16:47 41.716508 -121.368826 323 18200ft 183kts
18-Apr-18 16:48 41.760198 -121.404455 323 18201ft 183kts
18-Apr-18 16:49 41.803647 -121.439947 323 18201ft 183kts
18-Apr-18 16:50 41.847244 -121.475616 323 18202ft 183kts
18-Apr-18 16:51 41.892186 -121.512516 323 17659ft 201kts
18-Apr-18 16:52 41.941721 -121.553146 324 16670ft 214kts
18-Apr-18 16:53 41.993471 -121.595652 324 15672ft 220kts
18-Apr-18 16:54 42.045767 -121.638715 324 14757ft 220kts
18-Apr-18 16:55 42.097588 -121.681500 324 13957ft 218kts
18-Apr-18 16:56 42.146626 -121.727835 300 13158ft 211kts
18-Apr-18 16:57 42.164501 -121.802052 282 12380ft 209kts
18-Apr-18 16:58 42.176488 -121.875905 281 12102ft 190kts
18-Apr-18 16:59 42.187169 -121.943993 281 12102ft 183kts
18-Apr-18 17:00 42.197621 -122.011077 281 12103ft 183kts
18-Apr-18 17:01 42.208050 -122.078326 281 12102ft 182kts
18-Apr-18 17:02 42.218369 -122.145132 281 12105ft 182kts
18-Apr-18 17:03 42.228663 -122.212049 281 12102ft 182kts
18-Apr-18 17:04 42.239992 -122.278954 289 12101ft 183kts
18-Apr-18 17:05 42.261854 -122.340913 295 12098ft 183kts
18-Apr-18 17:06 42.285165 -122.401985 295 12098ft 182kts
18-Apr-18 17:07 42.308601 -122.463125 295 12094ft 183kts
18-Apr-18 17:08 42.331993 -122.524246 295 12089ft 183kts
18-Apr-18 17:09 42.355459 -122.585692 295 12085ft 183kts
18-Apr-18 17:10 42.378808 -122.646953 295 12083ft 183kts
18-Apr-18 17:11 42.402174 -122.708393 295 12080ft 184kts
18-Apr-18 17:12 42.425605 -122.770138 295 12082ft 184kts
18-Apr-18 17:13 42.448922 -122.831720 295 12082ft 184kts
18-Apr-18 17:14 42.472218 -122.893383 295 12079ft 184kts
18-Apr-18 17:15 42.505659 -122.946415 312 12073ft 185kts
18-Apr-18 17:16 42.542573 -122.995543 313 12064ft 186kts
18-Apr-18 17:17 42.579908 -123.044776 313 12050ft 187kts
18-Apr-18 17:18 42.617162 -123.093929 313 12042ft 186kts
18-Apr-18 17:19 42.654354 -123.143077 313 12034ft 187kts
18-Apr-18 17:20 42.691841 -123.192702 313 12030ft 188kts
18-Apr-18 17:21 42.729519 -123.242669 313 12014ft 190kts
18-Apr-18 17:22 42.767612 -123.293265 313 11956ft 190kts
18-Apr-18 17:23 42.805374 -123.343522 313 11961ft 188kts
18-Apr-18 17:24 42.842821 -123.393458 313 11961ft 188kts
18-Apr-18 17:25 42.879575 -123.444355 307 11970ft 187kts
18-Apr-18 17:26 42.911675 -123.500111 301 11978ft 186kts
18-Apr-18 17:27 42.939666 -123.559673 300 11983ft 186kts
18-Apr-18 17:28 42.968824 -123.618590 303 11987ft 186kts
18-Apr-18 17:29 42.997486 -123.677655 296 11990ft 186kts
18-Apr-18 17:30 43.020464 -123.741357 294 11955ft 188kts
18-Apr-18 17:31 43.044673 -123.809691 294 11336ft 210kts
18-Apr-18 17:32 43.069984 -123.881529 294 10660ft 209kts
18-Apr-18 17:33 43.096308 -123.952766 300 10006ft 210kts
18-Apr-18 17:34 43.125786 -124.018767 300 9109ft 191kts
18-Apr-18 17:35 43.148945 -124.078486 275 7900ft 173kts
18-Apr-18 17:36 43.150372 -124.143834 268 6701ft 170kts
18-Apr-18 17:37 43.147812 -124.208068 265 5503ft 168kts
18-Apr-18 17:38 43.149928 -124.271669 277 4303ft 166kts
18-Apr-18 17:39 43.166409 -124.328712 311 3120ft 158kts
18-Apr-18 17:40 43.191646 -124.374482 313 2366ft 131kts
18-Apr-18 17:41 43.213310 -124.409856 319 2377ft 117kts
18-Apr-18 17:42 43.235782 -124.439894 324 2368ft 106kts
18-Apr-18 17:43 43.258827 -124.464498 329 2393ft 108kts
18-Apr-18 17:44 43.284126 -124.489641 330 2383ft 113kts
18-Apr-18 17:45 43.310754 -124.506066 38 2361ft 98kts
18-Apr-18 17:46 43.327089 -124.476487 58 2309ft 106kts
18-Apr-18 17:47 43.343721 -124.436151 65 1548ft 127kts
18-Apr-18 17:48 43.359025 -124.396234 63 1266ft 105kts
18-Apr-18 17:49 43.372560 -124.363568 63 1275ft 93kts
18-Apr-18 17:50 43.385196 -124.332716 63 1209ft 92kts
18-Apr-18 17:51 43.397392 -124.303087 63 765ft 85kts
18-Apr-18 17:52 43.409223 -124.274208 64 297ft 89kts
18-Apr-18 17:53 43.417980 -124.251770 135 11ft 10kts
18-Apr-18 17:54 43.416327 -124.253941 239 11ft 24kts

Navigation Log

Ident Type
Flight plan parsing failed, navigation log unavailable